sensor_id;sensor_type;location;lat;lon;timestamp;P1;durP1;ratioP1;P2;durP2;ratioP2
7471;SDS011;3777;48.722;8.110;2023-01-26T00:01:52;24.03;;;15.47;;
7471;SDS011;3777;48.722;8.110;2023-01-26T00:04:19;23.20;;;15.10;;
7471;SDS011;3777;48.722;8.110;2023-01-26T00:06:46;23.83;;;15.77;;
7471;SDS011;3777;48.722;8.110;2023-01-26T00:09:13;23.87;;;15.87;;
7471;SDS011;3777;48.722;8.110;2023-01-26T00:11:42;24.63;;;16.80;;
7471;SDS011;3777;48.722;8.110;2023-01-26T00:14:09;26.63;;;17.17;;
7471;SDS011;3777;48.722;8.110;2023-01-26T00:16:35;26.33;;;17.13;;
7471;SDS011;3777;48.722;8.110;2023-01-26T00:19:03;21.27;;;15.87;;
7471;SDS011;3777;48.722;8.110;2023-01-26T00:21:30;21.23;;;15.10;;
7471;SDS011;3777;48.722;8.110;2023-01-26T00:23:57;22.53;;;15.70;;
7471;SDS011;3777;48.722;8.110;2023-01-26T00:26:25;25.17;;;17.57;;
7471;SDS011;3777;48.722;8.110;2023-01-26T00:28:53;27.70;;;17.70;;
7471;SDS011;3777;48.722;8.110;2023-01-26T00:31:21;25.60;;;16.87;;
7471;SDS011;3777;48.722;8.110;2023-01-26T00:33:49;24.93;;;17.23;;
7471;SDS011;3777;48.722;8.110;2023-01-26T00:36:16;24.30;;;16.23;;
7471;SDS011;3777;48.722;8.110;2023-01-26T00:38:44;24.63;;;17.17;;
7471;SDS011;3777;48.722;8.110;2023-01-26T00:41:11;21.50;;;14.97;;
7471;SDS011;3777;48.722;8.110;2023-01-26T00:43:59;25.00;;;15.90;;
7471;SDS011;3777;48.722;8.110;2023-01-26T00:46:26;22.43;;;15.37;;
7471;SDS011;3777;48.722;8.110;2023-01-26T00:48:53;25.50;;;16.53;;
7471;SDS011;3777;48.722;8.110;2023-01-26T00:51:20;25.80;;;17.07;;
7471;SDS011;3777;48.722;8.110;2023-01-26T00:53:47;25.20;;;17.23;;
7471;SDS011;3777;48.722;8.110;2023-01-26T00:56:14;28.83;;;17.53;;
7471;SDS011;3777;48.722;8.110;2023-01-26T00:58:41;26.40;;;17.87;;
7471;SDS011;3777;48.722;8.110;2023-01-26T01:01:10;27.93;;;18.13;;
7471;SDS011;3777;48.722;8.110;2023-01-26T01:03:37;28.47;;;18.30;;
7471;SDS011;3777;48.722;8.110;2023-01-26T01:06:04;29.73;;;19.10;;
7471;SDS011;3777;48.722;8.110;2023-01-26T01:08:31;30.10;;;18.70;;
7471;SDS011;3777;48.722;8.110;2023-01-26T01:11:02;30.20;;;19.57;;
7471;SDS011;3777;48.722;8.110;2023-01-26T01:13:30;28.57;;;19.27;;
7471;SDS011;3777;48.722;8.110;2023-01-26T01:15:57;28.67;;;18.27;;
7471;SDS011;3777;48.722;8.110;2023-01-26T01:18:25;29.67;;;19.57;;
7471;SDS011;3777;48.722;8.110;2023-01-26T01:20:52;30.53;;;19.83;;
7471;SDS011;3777;48.722;8.110;2023-01-26T01:23:19;29.20;;;20.07;;
7471;SDS011;3777;48.722;8.110;2023-01-26T01:25:46;30.50;;;19.60;;
7471;SDS011;3777;48.722;8.110;2023-01-26T01:28:22;29.37;;;19.00;;
7471;SDS011;3777;48.722;8.110;2023-01-26T01:30:49;32.67;;;20.57;;
7471;SDS011;3777;48.722;8.110;2023-01-26T01:33:16;35.77;;;22.97;;
7471;SDS011;3777;48.722;8.110;2023-01-26T01:35:44;31.43;;;21.37;;
7471;SDS011;3777;48.722;8.110;2023-01-26T01:38:21;31.87;;;20.20;;
7471;SDS011;3777;48.722;8.110;2023-01-26T01:40:48;33.87;;;22.07;;
7471;SDS011;3777;48.722;8.110;2023-01-26T01:43:16;36.23;;;23.97;;
7471;SDS011;3777;48.722;8.110;2023-01-26T01:45:43;33.43;;;22.17;;
7471;SDS011;3777;48.722;8.110;2023-01-26T01:48:13;33.97;;;21.80;;
7471;SDS011;3777;48.722;8.110;2023-01-26T01:50:47;33.47;;;21.47;;
7471;SDS011;3777;48.722;8.110;2023-01-26T01:53:17;34.63;;;21.90;;
7471;SDS011;3777;48.722;8.110;2023-01-26T01:55:49;34.97;;;22.60;;
7471;SDS011;3777;48.722;8.110;2023-01-26T01:58:18;31.87;;;21.43;;
7471;SDS011;3777;48.722;8.110;2023-01-26T02:00:45;33.83;;;21.57;;
7471;SDS011;3777;48.722;8.110;2023-01-26T02:03:12;34.97;;;22.80;;
7471;SDS011;3777;48.722;8.110;2023-01-26T02:05:47;32.07;;;21.90;;
7471;SDS011;3777;48.722;8.110;2023-01-26T02:08:20;37.07;;;23.43;;
7471;SDS011;3777;48.722;8.110;2023-01-26T02:10:51;37.47;;;23.37;;
7471;SDS011;3777;48.722;8.110;2023-01-26T02:13:21;37.93;;;24.43;;
7471;SDS011;3777;48.722;8.110;2023-01-26T02:15:51;42.13;;;27.03;;
7471;SDS011;3777;48.722;8.110;2023-01-26T02:18:18;40.73;;;25.60;;
7471;SDS011;3777;48.722;8.110;2023-01-26T02:20:46;43.70;;;24.63;;
7471;SDS011;3777;48.722;8.110;2023-01-26T02:23:21;38.50;;;24.30;;
7471;SDS011;3777;48.722;8.110;2023-01-26T02:26:00;36.60;;;23.40;;
7471;SDS011;3777;48.722;8.110;2023-01-26T02:28:29;36.67;;;24.57;;
7471;SDS011;3777;48.722;8.110;2023-01-26T02:30:57;35.00;;;21.03;;
7471;SDS011;3777;48.722;8.110;2023-01-26T02:33:26;33.40;;;21.87;;
7471;SDS011;3777;48.722;8.110;2023-01-26T02:35:54;32.37;;;21.07;;
7471;SDS011;3777;48.722;8.110;2023-01-26T02:38:21;31.77;;;20.50;;
7471;SDS011;3777;48.722;8.110;2023-01-26T02:40:52;33.03;;;20.90;;
7471;SDS011;3777;48.722;8.110;2023-01-26T02:43:22;34.57;;;21.20;;
7471;SDS011;3777;48.722;8.110;2023-01-26T02:45:50;35.53;;;22.30;;
7471;SDS011;3777;48.722;8.110;2023-01-26T02:48:17;35.53;;;22.20;;
7471;SDS011;3777;48.722;8.110;2023-01-26T02:51:05;36.30;;;22.77;;
7471;SDS011;3777;48.722;8.110;2023-01-26T02:53:32;35.97;;;21.63;;
7471;SDS011;3777;48.722;8.110;2023-01-26T02:55:59;36.10;;;22.63;;
7471;SDS011;3777;48.722;8.110;2023-01-26T02:58:26;34.53;;;21.63;;
7471;SDS011;3777;48.722;8.110;2023-01-26T03:00:53;33.47;;;21.80;;
7471;SDS011;3777;48.722;8.110;2023-01-26T03:03:21;34.40;;;21.53;;
7471;SDS011;3777;48.722;8.110;2023-01-26T03:05:50;33.97;;;21.57;;
7471;SDS011;3777;48.722;8.110;2023-01-26T03:08:18;33.63;;;21.03;;
7471;SDS011;3777;48.722;8.110;2023-01-26T03:10:44;32.37;;;21.00;;
7471;SDS011;3777;48.722;8.110;2023-01-26T03:13:12;36.73;;;22.63;;
7471;SDS011;3777;48.722;8.110;2023-01-26T03:15:40;34.37;;;22.17;;
7471;SDS011;3777;48.722;8.110;2023-01-26T03:18:07;32.93;;;20.90;;
7471;SDS011;3777;48.722;8.110;2023-01-26T03:21:03;35.77;;;21.73;;
7471;SDS011;3777;48.722;8.110;2023-01-26T03:23:50;37.37;;;21.67;;
7471;SDS011;3777;48.722;8.110;2023-01-26T03:26:34;34.23;;;21.33;;
7471;SDS011;3777;48.722;8.110;2023-01-26T03:29:19;35.43;;;21.50;;
7471;SDS011;3777;48.722;8.110;2023-01-26T03:31:47;35.27;;;21.77;;
7471;SDS011;3777;48.722;8.110;2023-01-26T03:34:14;34.93;;;21.00;;
7471;SDS011;3777;48.722;8.110;2023-01-26T03:36:41;34.00;;;22.20;;
7471;SDS011;3777;48.722;8.110;2023-01-26T03:39:08;32.73;;;21.43;;
7471;SDS011;3777;48.722;8.110;2023-01-26T03:41:55;37.17;;;22.70;;
7471;SDS011;3777;48.722;8.110;2023-01-26T03:44:40;35.53;;;22.13;;
7471;SDS011;3777;48.722;8.110;2023-01-26T03:47:25;35.00;;;21.60;;
7471;SDS011;3777;48.722;8.110;2023-01-26T03:50:10;36.10;;;21.37;;
7471;SDS011;3777;48.722;8.110;2023-01-26T03:52:54;35.13;;;22.70;;
7471;SDS011;3777;48.722;8.110;2023-01-26T03:55:39;36.13;;;21.93;;
7471;SDS011;3777;48.722;8.110;2023-01-26T03:58:23;35.47;;;22.37;;
7471;SDS011;3777;48.722;8.110;2023-01-26T04:00:57;33.00;;;21.30;;
7471;SDS011;3777;48.722;8.110;2023-01-26T04:03:26;36.70;;;22.07;;
7471;SDS011;3777;48.722;8.110;2023-01-26T04:06:10;37.70;;;22.47;;
7471;SDS011;3777;48.722;8.110;2023-01-26T04:08:54;35.90;;;22.17;;
7471;SDS011;3777;48.722;8.110;2023-01-26T04:11:21;37.23;;;23.27;;
7471;SDS011;3777;48.722;8.110;2023-01-26T04:13:48;35.80;;;22.60;;
7471;SDS011;3777;48.722;8.110;2023-01-26T04:16:32;38.10;;;22.80;;
7471;SDS011;3777;48.722;8.110;2023-01-26T04:19:18;35.50;;;21.53;;
7471;SDS011;3777;48.722;8.110;2023-01-26T04:22:02;32.00;;;20.07;;
7471;SDS011;3777;48.722;8.110;2023-01-26T04:24:29;33.70;;;20.63;;
7471;SDS011;3777;48.722;8.110;2023-01-26T04:26:56;34.97;;;21.30;;
7471;SDS011;3777;48.722;8.110;2023-01-26T04:29:23;34.40;;;21.93;;
7471;SDS011;3777;48.722;8.110;2023-01-26T04:31:50;34.80;;;20.93;;
7471;SDS011;3777;48.722;8.110;2023-01-26T04:34:18;34.37;;;20.83;;
7471;SDS011;3777;48.722;8.110;2023-01-26T04:36:45;33.57;;;20.10;;
7471;SDS011;3777;48.722;8.110;2023-01-26T04:39:12;33.70;;;20.83;;
7471;SDS011;3777;48.722;8.110;2023-01-26T04:41:39;34.37;;;21.30;;
7471;SDS011;3777;48.722;8.110;2023-01-26T04:44:06;34.10;;;20.50;;
7471;SDS011;3777;48.722;8.110;2023-01-26T04:46:33;36.13;;;22.30;;
7471;SDS011;3777;48.722;8.110;2023-01-26T04:49:00;33.23;;;21.43;;
7471;SDS011;3777;48.722;8.110;2023-01-26T04:51:28;34.30;;;20.47;;
7471;SDS011;3777;48.722;8.110;2023-01-26T04:53:55;34.03;;;20.97;;
7471;SDS011;3777;48.722;8.110;2023-01-26T04:56:23;34.63;;;20.90;;
7471;SDS011;3777;48.722;8.110;2023-01-26T04:58:51;35.53;;;22.47;;
7471;SDS011;3777;48.722;8.110;2023-01-26T05:01:19;33.50;;;20.73;;
7471;SDS011;3777;48.722;8.110;2023-01-26T05:03:46;34.40;;;20.53;;
7471;SDS011;3777;48.722;8.110;2023-01-26T05:06:13;34.30;;;21.10;;
7471;SDS011;3777;48.722;8.110;2023-01-26T05:08:42;35.77;;;22.10;;
7471;SDS011;3777;48.722;8.110;2023-01-26T05:11:09;33.87;;;20.60;;
7471;SDS011;3777;48.722;8.110;2023-01-26T05:13:36;37.53;;;21.83;;
7471;SDS011;3777;48.722;8.110;2023-01-26T05:16:04;35.50;;;21.73;;
7471;SDS011;3777;48.722;8.110;2023-01-26T05:18:31;33.17;;;21.30;;
7471;SDS011;3777;48.722;8.110;2023-01-26T05:20:58;35.17;;;21.57;;
7471;SDS011;3777;48.722;8.110;2023-01-26T05:23:25;35.93;;;22.43;;
7471;SDS011;3777;48.722;8.110;2023-01-26T05:25:54;36.47;;;21.70;;
7471;SDS011;3777;48.722;8.110;2023-01-26T05:28:21;35.40;;;22.70;;
7471;SDS011;3777;48.722;8.110;2023-01-26T05:30:48;35.93;;;22.07;;
7471;SDS011;3777;48.722;8.110;2023-01-26T05:33:15;38.63;;;21.90;;
7471;SDS011;3777;48.722;8.110;2023-01-26T05:35:46;34.87;;;21.90;;
7471;SDS011;3777;48.722;8.110;2023-01-26T05:38:13;36.00;;;21.57;;
7471;SDS011;3777;48.722;8.110;2023-01-26T05:40:40;36.43;;;22.53;;
7471;SDS011;3777;48.722;8.110;2023-01-26T05:43:08;38.43;;;21.93;;
7471;SDS011;3777;48.722;8.110;2023-01-26T05:45:36;39.87;;;22.47;;
7471;SDS011;3777;48.722;8.110;2023-01-26T05:48:04;37.20;;;23.13;;
7471;SDS011;3777;48.722;8.110;2023-01-26T05:50:31;37.10;;;23.50;;
7471;SDS011;3777;48.722;8.110;2023-01-26T05:52:58;39.70;;;22.87;;
7471;SDS011;3777;48.722;8.110;2023-01-26T05:55:27;37.23;;;22.20;;
7471;SDS011;3777;48.722;8.110;2023-01-26T05:57:54;38.33;;;22.60;;
7471;SDS011;3777;48.722;8.110;2023-01-26T06:00:23;41.03;;;22.87;;
7471;SDS011;3777;48.722;8.110;2023-01-26T06:02:50;35.13;;;22.20;;
7471;SDS011;3777;48.722;8.110;2023-01-26T06:05:17;39.10;;;24.20;;
7471;SDS011;3777;48.722;8.110;2023-01-26T06:07:44;36.07;;;21.73;;
7471;SDS011;3777;48.722;8.110;2023-01-26T06:10:11;36.27;;;22.27;;
7471;SDS011;3777;48.722;8.110;2023-01-26T06:12:38;39.33;;;22.97;;
7471;SDS011;3777;48.722;8.110;2023-01-26T06:15:07;40.17;;;23.67;;
7471;SDS011;3777;48.722;8.110;2023-01-26T06:17:37;37.57;;;23.13;;
7471;SDS011;3777;48.722;8.110;2023-01-26T06:20:05;42.07;;;24.20;;
7471;SDS011;3777;48.722;8.110;2023-01-26T06:22:33;35.13;;;21.57;;
7471;SDS011;3777;48.722;8.110;2023-01-26T06:25:00;38.90;;;22.90;;
7471;SDS011;3777;48.722;8.110;2023-01-26T06:27:27;38.90;;;22.40;;
7471;SDS011;3777;48.722;8.110;2023-01-26T06:29:54;38.20;;;22.50;;
7471;SDS011;3777;48.722;8.110;2023-01-26T06:32:21;37.13;;;22.50;;
7471;SDS011;3777;48.722;8.110;2023-01-26T06:34:50;36.00;;;22.40;;
7471;SDS011;3777;48.722;8.110;2023-01-26T06:37:18;38.50;;;23.97;;
7471;SDS011;3777;48.722;8.110;2023-01-26T06:39:45;39.40;;;23.47;;
7471;SDS011;3777;48.722;8.110;2023-01-26T06:42:12;36.60;;;22.50;;
7471;SDS011;3777;48.722;8.110;2023-01-26T06:44:39;37.83;;;22.27;;
7471;SDS011;3777;48.722;8.110;2023-01-26T06:47:06;38.90;;;22.30;;
7471;SDS011;3777;48.722;8.110;2023-01-26T06:49:33;38.60;;;22.33;;
7471;SDS011;3777;48.722;8.110;2023-01-26T06:52:03;36.67;;;23.13;;
7471;SDS011;3777;48.722;8.110;2023-01-26T06:54:46;35.23;;;21.57;;
7471;SDS011;3777;48.722;8.110;2023-01-26T06:57:13;38.00;;;23.67;;
7471;SDS011;3777;48.722;8.110;2023-01-26T06:59:40;37.77;;;22.93;;
7471;SDS011;3777;48.722;8.110;2023-01-26T07:02:09;39.30;;;22.97;;
7471;SDS011;3777;48.722;8.110;2023-01-26T07:04:41;39.03;;;23.70;;
7471;SDS011;3777;48.722;8.110;2023-01-26T07:07:09;37.40;;;23.33;;
7471;SDS011;3777;48.722;8.110;2023-01-26T07:09:36;41.43;;;24.27;;
7471;SDS011;3777;48.722;8.110;2023-01-26T07:12:03;39.40;;;23.07;;
7471;SDS011;3777;48.722;8.110;2023-01-26T07:14:30;38.13;;;22.80;;
7471;SDS011;3777;48.722;8.110;2023-01-26T07:16:59;39.13;;;23.07;;
7471;SDS011;3777;48.722;8.110;2023-01-26T07:19:26;38.43;;;23.37;;
7471;SDS011;3777;48.722;8.110;2023-01-26T07:21:54;40.10;;;24.03;;
7471;SDS011;3777;48.722;8.110;2023-01-26T07:24:22;39.77;;;22.97;;
7471;SDS011;3777;48.722;8.110;2023-01-26T07:26:49;39.67;;;23.23;;
7471;SDS011;3777;48.722;8.110;2023-01-26T07:29:17;39.47;;;22.63;;
7471;SDS011;3777;48.722;8.110;2023-01-26T07:31:44;38.37;;;23.33;;
7471;SDS011;3777;48.722;8.110;2023-01-26T07:34:11;40.87;;;23.60;;
7471;SDS011;3777;48.722;8.110;2023-01-26T07:36:38;39.13;;;23.40;;
7471;SDS011;3777;48.722;8.110;2023-01-26T07:39:05;41.33;;;23.90;;
7471;SDS011;3777;48.722;8.110;2023-01-26T07:41:34;38.60;;;23.50;;
7471;SDS011;3777;48.722;8.110;2023-01-26T07:44:00;38.50;;;22.83;;
7471;SDS011;3777;48.722;8.110;2023-01-26T07:46:28;37.07;;;23.60;;
7471;SDS011;3777;48.722;8.110;2023-01-26T07:48:55;37.87;;;23.70;;
7471;SDS011;3777;48.722;8.110;2023-01-26T07:51:22;39.47;;;22.87;;
7471;SDS011;3777;48.722;8.110;2023-01-26T07:53:49;41.40;;;24.17;;
7471;SDS011;3777;48.722;8.110;2023-01-26T07:56:17;40.33;;;22.87;;
7471;SDS011;3777;48.722;8.110;2023-01-26T07:58:49;41.93;;;24.40;;
7471;SDS011;3777;48.722;8.110;2023-01-26T08:01:16;42.57;;;24.67;;
7471;SDS011;3777;48.722;8.110;2023-01-26T08:03:43;42.43;;;23.00;;
7471;SDS011;3777;48.722;8.110;2023-01-26T08:06:11;38.50;;;23.00;;
7471;SDS011;3777;48.722;8.110;2023-01-26T08:08:38;40.00;;;23.43;;
7471;SDS011;3777;48.722;8.110;2023-01-26T08:11:06;40.67;;;22.93;;
7471;SDS011;3777;48.722;8.110;2023-01-26T08:13:33;39.00;;;23.50;;
7471;SDS011;3777;48.722;8.110;2023-01-26T08:16:02;40.83;;;23.73;;
7471;SDS011;3777;48.722;8.110;2023-01-26T08:18:31;43.53;;;24.70;;
7471;SDS011;3777;48.722;8.110;2023-01-26T08:20:58;40.63;;;24.20;;
7471;SDS011;3777;48.722;8.110;2023-01-26T08:23:25;41.13;;;24.80;;
7471;SDS011;3777;48.722;8.110;2023-01-26T08:25:52;35.50;;;21.13;;
7471;SDS011;3777;48.722;8.110;2023-01-26T08:28:19;36.70;;;21.10;;
7471;SDS011;3777;48.722;8.110;2023-01-26T08:30:46;35.20;;;21.10;;
7471;SDS011;3777;48.722;8.110;2023-01-26T08:33:15;36.27;;;20.87;;
7471;SDS011;3777;48.722;8.110;2023-01-26T08:35:42;32.77;;;19.43;;
7471;SDS011;3777;48.722;8.110;2023-01-26T08:38:09;37.73;;;22.13;;
7471;SDS011;3777;48.722;8.110;2023-01-26T08:40:35;34.20;;;21.33;;
7471;SDS011;3777;48.722;8.110;2023-01-26T08:43:03;37.03;;;22.93;;
7471;SDS011;3777;48.722;8.110;2023-01-26T08:45:30;36.40;;;21.70;;
7471;SDS011;3777;48.722;8.110;2023-01-26T08:47:57;31.57;;;19.30;;
7471;SDS011;3777;48.722;8.110;2023-01-26T08:50:25;32.40;;;18.67;;
7471;SDS011;3777;48.722;8.110;2023-01-26T08:52:54;32.60;;;19.20;;
7471;SDS011;3777;48.722;8.110;2023-01-26T08:55:21;33.00;;;20.27;;
7471;SDS011;3777;48.722;8.110;2023-01-26T08:57:52;28.43;;;18.53;;
7471;SDS011;3777;48.722;8.110;2023-01-26T09:00:20;32.77;;;19.60;;
7471;SDS011;3777;48.722;8.110;2023-01-26T09:02:49;30.57;;;18.57;;
7471;SDS011;3777;48.722;8.110;2023-01-26T09:05:16;37.27;;;21.17;;
7471;SDS011;3777;48.722;8.110;2023-01-26T09:07:44;31.70;;;17.53;;
7471;SDS011;3777;48.722;8.110;2023-01-26T09:10:11;28.87;;;18.23;;
7471;SDS011;3777;48.722;8.110;2023-01-26T09:12:38;33.20;;;18.97;;
7471;SDS011;3777;48.722;8.110;2023-01-26T09:15:06;30.17;;;19.03;;
7471;SDS011;3777;48.722;8.110;2023-01-26T09:17:34;33.57;;;20.10;;
7471;SDS011;3777;48.722;8.110;2023-01-26T09:20:01;30.77;;;17.83;;
7471;SDS011;3777;48.722;8.110;2023-01-26T09:22:28;33.77;;;21.30;;
7471;SDS011;3777;48.722;8.110;2023-01-26T09:24:57;32.87;;;18.37;;
7471;SDS011;3777;48.722;8.110;2023-01-26T09:27:24;33.67;;;19.67;;
7471;SDS011;3777;48.722;8.110;2023-01-26T09:29:51;31.37;;;19.33;;
7471;SDS011;3777;48.722;8.110;2023-01-26T09:32:18;30.07;;;18.07;;
7471;SDS011;3777;48.722;8.110;2023-01-26T09:34:45;30.53;;;16.97;;
7471;SDS011;3777;48.722;8.110;2023-01-26T09:37:12;33.30;;;18.70;;
7471;SDS011;3777;48.722;8.110;2023-01-26T09:39:39;32.43;;;18.00;;
7471;SDS011;3777;48.722;8.110;2023-01-26T09:45:13;22.77;;;13.70;;
7471;SDS011;3777;48.722;8.110;2023-01-26T09:47:58;24.83;;;14.77;;
7471;SDS011;3777;48.722;8.110;2023-01-26T09:50:39;29.10;;;16.50;;
7471;SDS011;3777;48.722;8.110;2023-01-26T09:53:11;31.77;;;17.10;;
7471;SDS011;3777;48.722;8.110;2023-01-26T09:55:42;24.83;;;15.50;;
7471;SDS011;3777;48.722;8.110;2023-01-26T09:58:13;26.63;;;14.90;;
7471;SDS011;3777;48.722;8.110;2023-01-26T10:00:45;26.80;;;15.30;;
7471;SDS011;3777;48.722;8.110;2023-01-26T10:03:16;28.83;;;16.07;;
7471;SDS011;3777;48.722;8.110;2023-01-26T10:05:50;25.13;;;13.93;;
7471;SDS011;3777;48.722;8.110;2023-01-26T10:08:21;23.90;;;15.27;;
7471;SDS011;3777;48.722;8.110;2023-01-26T10:10:50;25.90;;;14.97;;
7471;SDS011;3777;48.722;8.110;2023-01-26T10:13:20;24.53;;;13.90;;
7471;SDS011;3777;48.722;8.110;2023-01-26T10:15:48;27.80;;;15.40;;
7471;SDS011;3777;48.722;8.110;2023-01-26T10:18:20;22.50;;;13.73;;
7471;SDS011;3777;48.722;8.110;2023-01-26T10:20:52;25.37;;;14.87;;
7471;SDS011;3777;48.722;8.110;2023-01-26T10:23:21;24.07;;;14.33;;
7471;SDS011;3777;48.722;8.110;2023-01-26T10:25:52;24.53;;;14.40;;
7471;SDS011;3777;48.722;8.110;2023-01-26T10:28:26;23.33;;;14.37;;
7471;SDS011;3777;48.722;8.110;2023-01-26T10:30:55;22.50;;;13.97;;
7471;SDS011;3777;48.722;8.110;2023-01-26T10:33:24;21.40;;;13.07;;
7471;SDS011;3777;48.722;8.110;2023-01-26T10:35:52;25.10;;;14.67;;
7471;SDS011;3777;48.722;8.110;2023-01-26T10:43:55;23.47;;;13.87;;
7471;SDS011;3777;48.722;8.110;2023-01-26T10:46:25;24.53;;;14.10;;
7471;SDS011;3777;48.722;8.110;2023-01-26T10:48:56;26.33;;;15.07;;
7471;SDS011;3777;48.722;8.110;2023-01-26T10:51:26;23.43;;;13.67;;
7471;SDS011;3777;48.722;8.110;2023-01-26T10:56:55;21.53;;;13.57;;
7471;SDS011;3777;48.722;8.110;2023-01-26T10:59:26;23.53;;;13.77;;
7471;SDS011;3777;48.722;8.110;2023-01-26T11:01:56;21.13;;;12.93;;
7471;SDS011;3777;48.722;8.110;2023-01-26T11:04:26;24.07;;;14.00;;
7471;SDS011;3777;48.722;8.110;2023-01-26T11:06:53;20.03;;;12.90;;
7471;SDS011;3777;48.722;8.110;2023-01-26T11:09:26;20.30;;;12.67;;
7471;SDS011;3777;48.722;8.110;2023-01-26T11:11:59;20.77;;;12.50;;
7471;SDS011;3777;48.722;8.110;2023-01-26T11:14:29;19.13;;;12.33;;
7471;SDS011;3777;48.722;8.110;2023-01-26T11:16:59;20.73;;;12.63;;
7471;SDS011;3777;48.722;8.110;2023-01-26T11:19:43;22.70;;;13.03;;
7471;SDS011;3777;48.722;8.110;2023-01-26T11:22:23;19.17;;;12.17;;
7471;SDS011;3777;48.722;8.110;2023-01-26T11:24:59;20.83;;;13.27;;
7471;SDS011;3777;48.722;8.110;2023-01-26T11:27:38;20.20;;;11.63;;
7471;SDS011;3777;48.722;8.110;2023-01-26T11:30:23;22.57;;;12.83;;
7471;SDS011;3777;48.722;8.110;2023-01-26T11:33:16;21.93;;;13.00;;
7471;SDS011;3777;48.722;8.110;2023-01-26T11:35:53;20.93;;;12.70;;
7471;SDS011;3777;48.722;8.110;2023-01-26T11:38:31;23.53;;;13.57;;
7471;SDS011;3777;48.722;8.110;2023-01-26T11:41:07;22.63;;;14.10;;
7471;SDS011;3777;48.722;8.110;2023-01-26T11:43:52;19.90;;;13.43;;
7471;SDS011;3777;48.722;8.110;2023-01-26T11:52:24;19.07;;;13.00;;
7471;SDS011;3777;48.722;8.110;2023-01-26T11:55:01;19.30;;;12.77;;
7471;SDS011;3777;48.722;8.110;2023-01-26T11:57:40;19.63;;;13.27;;
7471;SDS011;3777;48.722;8.110;2023-01-26T12:00:13;21.17;;;13.93;;
7471;SDS011;3777;48.722;8.110;2023-01-26T12:02:47;24.00;;;14.53;;
7471;SDS011;3777;48.722;8.110;2023-01-26T12:05:19;24.30;;;14.73;;
7471;SDS011;3777;48.722;8.110;2023-01-26T12:07:50;23.03;;;14.30;;
7471;SDS011;3777;48.722;8.110;2023-01-26T12:10:22;22.93;;;14.87;;
7471;SDS011;3777;48.722;8.110;2023-01-26T12:12:54;21.50;;;13.57;;
7471;SDS011;3777;48.722;8.110;2023-01-26T12:15:25;25.13;;;14.80;;
7471;SDS011;3777;48.722;8.110;2023-01-26T12:18:00;24.13;;;13.83;;
7471;SDS011;3777;48.722;8.110;2023-01-26T12:20:37;20.20;;;13.13;;
7471;SDS011;3777;48.722;8.110;2023-01-26T12:23:09;20.67;;;13.10;;
7471;SDS011;3777;48.722;8.110;2023-01-26T12:25:43;25.17;;;15.30;;
7471;SDS011;3777;48.722;8.110;2023-01-26T12:28:17;23.20;;;14.37;;
7471;SDS011;3777;48.722;8.110;2023-01-26T12:30:48;23.53;;;14.63;;
7471;SDS011;3777;48.722;8.110;2023-01-26T12:33:22;22.97;;;14.47;;
7471;SDS011;3777;48.722;8.110;2023-01-26T12:35:55;23.03;;;14.77;;
7471;SDS011;3777;48.722;8.110;2023-01-26T12:38:45;24.37;;;15.23;;
7471;SDS011;3777;48.722;8.110;2023-01-26T12:41:24;24.90;;;15.67;;
7471;SDS011;3777;48.722;8.110;2023-01-26T12:44:00;20.43;;;14.10;;
7471;SDS011;3777;48.722;8.110;2023-01-26T12:46:43;22.13;;;13.90;;
7471;SDS011;3777;48.722;8.110;2023-01-26T12:49:18;22.80;;;14.07;;
7471;SDS011;3777;48.722;8.110;2023-01-26T12:51:52;21.37;;;13.07;;
7471;SDS011;3777;48.722;8.110;2023-01-26T12:54:26;23.30;;;14.97;;
7471;SDS011;3777;48.722;8.110;2023-01-26T12:57:00;25.20;;;15.13;;
7471;SDS011;3777;48.722;8.110;2023-01-26T12:59:30;21.03;;;13.57;;
7471;SDS011;3777;48.722;8.110;2023-01-26T13:01:59;24.10;;;15.63;;
7471;SDS011;3777;48.722;8.110;2023-01-26T13:04:36;23.40;;;14.63;;
7471;SDS011;3777;48.722;8.110;2023-01-26T13:07:24;23.90;;;15.87;;
7471;SDS011;3777;48.722;8.110;2023-01-26T13:12:56;16.67;;;12.10;;
7471;SDS011;3777;48.722;8.110;2023-01-26T13:15:25;21.90;;;13.30;;
7471;SDS011;3777;48.722;8.110;2023-01-26T13:17:57;20.33;;;12.97;;
7471;SDS011;3777;48.722;8.110;2023-01-26T13:20:26;23.50;;;15.27;;
7471;SDS011;3777;48.722;8.110;2023-01-26T13:26:24;23.50;;;14.83;;
7471;SDS011;3777;48.722;8.110;2023-01-26T13:29:25;21.40;;;14.27;;
7471;SDS011;3777;48.722;8.110;2023-01-26T13:32:00;22.43;;;14.27;;
7471;SDS011;3777;48.722;8.110;2023-01-26T13:35:00;21.03;;;14.10;;
7471;SDS011;3777;48.722;8.110;2023-01-26T13:37:29;20.47;;;14.10;;
7471;SDS011;3777;48.722;8.110;2023-01-26T13:40:03;19.10;;;12.23;;
7471;SDS011;3777;48.722;8.110;2023-01-26T13:42:42;19.10;;;12.77;;
7471;SDS011;3777;48.722;8.110;2023-01-26T13:45:19;17.30;;;12.00;;
7471;SDS011;3777;48.722;8.110;2023-01-26T13:47:51;17.97;;;11.80;;
7471;SDS011;3777;48.722;8.110;2023-01-26T13:50:21;17.77;;;10.60;;
7471;SDS011;3777;48.722;8.110;2023-01-26T13:52:54;20.07;;;13.13;;
7471;SDS011;3777;48.722;8.110;2023-01-26T13:55:23;22.63;;;14.07;;
7471;SDS011;3777;48.722;8.110;2023-01-26T14:00:37;20.07;;;13.93;;
7471;SDS011;3777;48.722;8.110;2023-01-26T14:03:05;18.93;;;13.40;;
7471;SDS011;3777;48.722;8.110;2023-01-26T14:05:49;18.37;;;13.03;;
7471;SDS011;3777;48.722;8.110;2023-01-26T14:08:18;20.93;;;13.30;;
7471;SDS011;3777;48.722;8.110;2023-01-26T14:10:47;16.37;;;10.50;;
7471;SDS011;3777;48.722;8.110;2023-01-26T14:13:18;15.00;;;10.70;;
7471;SDS011;3777;48.722;8.110;2023-01-26T14:15:56;13.27;;;10.27;;
7471;SDS011;3777;48.722;8.110;2023-01-26T14:18:25;14.20;;;9.53;;
7471;SDS011;3777;48.722;8.110;2023-01-26T14:20:59;10.93;;;8.00;;
7471;SDS011;3777;48.722;8.110;2023-01-26T14:23:30;11.97;;;8.30;;
7471;SDS011;3777;48.722;8.110;2023-01-26T14:25:59;12.37;;;8.50;;
7471;SDS011;3777;48.722;8.110;2023-01-26T14:28:30;9.97;;;7.60;;
7471;SDS011;3777;48.722;8.110;2023-01-26T14:31:01;9.23;;;7.17;;
7471;SDS011;3777;48.722;8.110;2023-01-26T14:33:31;10.17;;;7.67;;
7471;SDS011;3777;48.722;8.110;2023-01-26T14:36:00;9.40;;;7.17;;
7471;SDS011;3777;48.722;8.110;2023-01-26T14:38:28;8.10;;;6.63;;
7471;SDS011;3777;48.722;8.110;2023-01-26T14:41:07;8.30;;;6.70;;
7471;SDS011;3777;48.722;8.110;2023-01-26T14:43:39;10.03;;;6.60;;
7471;SDS011;3777;48.722;8.110;2023-01-26T14:46:07;11.23;;;6.67;;
7471;SDS011;3777;48.722;8.110;2023-01-26T14:48:39;9.03;;;7.00;;
7471;SDS011;3777;48.722;8.110;2023-01-26T14:51:11;8.40;;;6.70;;
7471;SDS011;3777;48.722;8.110;2023-01-26T14:53:47;9.50;;;6.80;;
7471;SDS011;3777;48.722;8.110;2023-01-26T14:56:16;8.30;;;6.73;;
7471;SDS011;3777;48.722;8.110;2023-01-26T14:58:47;10.90;;;8.07;;
7471;SDS011;3777;48.722;8.110;2023-01-26T15:01:22;9.47;;;7.13;;
7471;SDS011;3777;48.722;8.110;2023-01-26T15:03:55;11.07;;;8.10;;
7471;SDS011;3777;48.722;8.110;2023-01-26T15:06:25;9.43;;;7.73;;
7471;SDS011;3777;48.722;8.110;2023-01-26T15:08:57;9.87;;;7.73;;
7471;SDS011;3777;48.722;8.110;2023-01-26T15:11:27;9.13;;;7.33;;
7471;SDS011;3777;48.722;8.110;2023-01-26T15:17:26;11.00;;;9.30;;
7471;SDS011;3777;48.722;8.110;2023-01-26T15:19:54;9.70;;;7.97;;
7471;SDS011;3777;48.722;8.110;2023-01-26T15:22:23;12.00;;;9.27;;
7471;SDS011;3777;48.722;8.110;2023-01-26T15:24:58;16.50;;;10.43;;
7471;SDS011;3777;48.722;8.110;2023-01-26T15:27:30;13.07;;;7.50;;
7471;SDS011;3777;48.722;8.110;2023-01-26T15:30:01;8.67;;;6.77;;
7471;SDS011;3777;48.722;8.110;2023-01-26T15:32:31;6.70;;;5.67;;
7471;SDS011;3777;48.722;8.110;2023-01-26T15:37:58;8.83;;;5.83;;
7471;SDS011;3777;48.722;8.110;2023-01-26T15:40:26;7.27;;;5.53;;
7471;SDS011;3777;48.722;8.110;2023-01-26T15:43:03;8.17;;;5.57;;
7471;SDS011;3777;48.722;8.110;2023-01-26T15:45:37;6.30;;;5.67;;